Hovedside
METAR-TAF:

METAR-TAF

Lufthavner :

Humberside, England

breddegrad: 53-35N, lengdegrad: 000-21W, høyde over havet: 31 m

Gjeldene værobservasjon

Denne rapporten ble laget for 16 minutter siden, klokken 13:20 UTC
Vind 13 kt fra Sørvest
Temperatur 25°C
Luftfuktighet 44%
Trykk 1019 hPa
Sikt 10 km eller mer
Få skyer i en høyde av 3800 ft

METAR: EGNJ 181320Z 22013KT 9999 FEW038 25/12 Q1019

Tid: 14:36 (13:36 UTC)

Varsel

Denne rapporten ble laget for 2 timer og 37 minutter siden, klokken 10:59 UTC
Varsel gyldig fra 18. klokken 12 UTC til 18. klokken 21 UTC
Vind 8 kt fra Sør
Sikt 10 km eller mer
Få skyer i en høyde av 4500 ft

TAF: EGNJ 181059Z 1812/1821 19008KT 9999 FEW045

Værobservasjoner og værvarsel for over 4000 flyplasser (METAR- og TAF-rapporter).

Tilgjengelige stasjoner er representert av de røde og gule prikkene på kartet.

Hold musepekeren over prikken for å se navnet på stasjonen.

Klikk så for å se værobservasjoner og -varsler.

For å forandre kartet kan du klikke på den grønne knappen med svart kryss for å zoome inn, på den grønne knappen med strek for å zoome ut, eller på de grønne pilene for å se tilstøtende kart.


METAR-TAF: